Ackerman, MS

6:32 AM CDT on July 06, 2015 (GMT -0500)
CenterRidge/Shiloh Community | | Change Station
CLOSE
Current Station
Personal Weather Station
Location: Louisville, MS
Elevation: 548 ft
Nearby Weather Stations

Elev 548 ft 33.08 °N, 89.22 °W | Updated 16 minutes ago

Overcast
Overcast
65.6 °F
Feels Like 65.6 °F
N
0.0
Wind Variable Wind from WNW
Gusts 1.0 mph

Today
High -- | Low -- °F
--% Chance of Precip.
Yesterday
High -- | Low -- °F
Precip. -- in
5:53 AM 8:09 PM
Waning Gibbous, 76% visible
Pressure 30.16 in
Visibility 1.0 miles
Clouds Overcast 300 ft
Dew Point 65 °F
Humidity 99%
Rainfall 0.00 in
Snow Depth Not available.
UV 0 out of 12
Pollen 3.00 out of 12
Air Quality Not available.
Flu Activity Not available.
METAR KSTF 061115Z AUTO 00000KT 1SM BR OVC003 18/18 A3016 RMK AO2

More Conditions Fewer Conditions

Pressure 30.16 in
Visibility 1.0 miles
Clouds Overcast 300 ft
Dew Point 65 °F
Humidity 99%
Rainfall 0.00 in
Snow Depth Not available.
UV 0 out of 12
Pollen 3.00 out of 12
Air Quality Not available.
Flu Activity Not available.
METAR KSTF 061115Z AUTO 00000KT 1SM BR OVC003 18/18 A3016 RMK AO2

More Conditions Fewer Conditions

10-Day Weather Forecast

×

Almanac

Astronomy

Jul. 06, 2015 Rise Set
Actual Time
Civil Twilight
Nautical Twilight
Astronomical Twilight
Moon
Length of Visible Light
Length of Day
Tomorrow will be .
, % of the Moon is Illuminated

Today's Extremes

State Highs State Lows

Community

WunderPhotos

Upload Photos

1,835,538 photos uploaded!

WunderBlogs® & News

Nearby

Air Quality

  Air Quality AQ Index Pollutant
Not available.

Snow Depth

Station Depth Elevation

Earthquake Activity

City Distance Mag. Time & Date
Minimum magnitude displayed is 2.5.

Coastal Water Temperatures

Place Temperature

Stations

Nearby Weather Stations

Station Location Temp. Windchill Dew Point Humidity Wind Precip. Elev Updated Type